Time;durP1;ratioP1;P1;durP2;ratioP2;P2;SDS_P1;SDS_P2;PMS_P1;PMS_P2;Temp;Humidity;BMP_temperature;BMP_pressure;BME280_temperature;BME280_humidity;BME280_pressure;Samples;Min_cycle;Max_cycle;Signal;HPM_P1;HPM_P2
2023/10/20 00:02:41;;;;;;;13.70;10.70;;;;;;;8.37;87.32;98401.30;130955;1255;108480;-77
2023/10/20 00:05:47;;;;;;;14.30;11.30;;;;;;;8.39;87.31;98395.08;130872;1258;108623;-77
2023/10/20 00:08:53;;;;;;;15.20;11.10;;;;;;;8.39;87.27;98389.75;130980;1256;108914;-77
2023/10/20 00:11:59;;;;;;;14.20;9.60;;;;;;;8.38;87.51;98381.21;130877;1260;108451;-77
2023/10/20 00:15:09;;;;;;;15.30;11.90;;;;;;;8.39;87.42;98373.05;130910;1256;108391;-76
2023/10/20 00:18:14;;;;;;;17.40;12.40;;;;;;;8.41;87.48;98365.73;130960;1257;106689;-76
2023/10/20 00:21:20;;;;;;;16.30;12.20;;;;;;;8.44;87.49;98359.23;131130;1257;107734;-76
2023/10/20 00:24:25;;;;;;;16.50;12.70;;;;;;;8.44;87.68;98361.48;131022;1255;106363;-76
2023/10/20 00:27:31;;;;;;;16.10;11.90;;;;;;;8.42;87.62;98363.27;130934;1266;108680;-76
2023/10/20 00:30:36;;;;;;;14.40;10.80;;;;;;;8.40;87.66;98363.16;130945;1267;108690;-77
2023/10/20 00:33:42;;;;;;;14.60;10.80;;;;;;;8.40;87.69;98360.17;130993;1265;107979;-77
2023/10/20 00:36:48;;;;;;;17.10;11.90;;;;;;;8.42;87.71;98356.27;130941;1255;108442;-77
2023/10/20 00:39:53;;;;;;;16.50;12.00;;;;;;;8.42;87.82;98356.23;130943;1257;106940;-77
2023/10/20 00:43:00;;;;;;;16.50;12.00;;;;;;;8.43;87.85;98345.70;130856;1254;109380;-77
2023/10/20 00:46:08;;;;;;;15.80;11.80;;;;;;;8.42;87.61;98328.63;131037;1257;106766;-77
2023/10/20 00:49:14;;;;;;;15.50;10.90;;;;;;;8.40;87.81;98315.33;131011;1259;108702;-78
2023/10/20 00:52:20;;;;;;;12.50;9.30;;;;;;;8.39;87.97;98312.79;130733;1265;107306;-78
2023/10/20 00:55:27;;;;;;;14.40;10.90;;;;;;;8.40;87.97;98305.79;131027;1251;107688;-78
2023/10/20 00:58:34;;;;;;;16.40;11.80;;;;;;;8.43;88.00;98295.37;130944;1265;108531;-78
2023/10/20 01:01:39;;;;;;;15.70;11.30;;;;;;;8.44;88.02;98282.13;131052;1253;107617;-78
2023/10/20 01:04:45;;;;;;;15.00;11.70;;;;;;;8.42;88.07;98276.33;130948;1255;107848;-77
2023/10/20 01:07:51;;;;;;;14.90;10.80;;;;;;;8.41;88.12;98288.35;130908;1258;106807;-78
2023/10/20 01:10:56;;;;;;;13.20;9.60;;;;;;;8.40;88.29;98286.65;131033;1254;105622;-77
2023/10/20 01:14:02;;;;;;;14.90;10.60;;;;;;;8.41;88.26;98286.36;130939;1255;107591;-78
2023/10/20 01:17:09;;;;;;;13.70;10.80;;;;;;;8.42;88.33;98287.95;131025;1263;108600;-78
2023/10/20 01:20:15;;;;;;;14.80;11.10;;;;;;;8.45;88.20;98279.65;131040;1254;108627;-79
2023/10/20 01:23:22;;;;;;;15.70;11.90;;;;;;;8.45;88.19;98281.77;131087;1255;107789;-78
2023/10/20 01:26:29;;;;;;;14.50;10.30;;;;;;;8.42;88.24;98279.45;130845;1264;107208;-78
2023/10/20 01:29:34;;;;;;;11.60;8.70;;;;;;;8.41;88.31;98283.00;130994;1254;106741;-78
2023/10/20 01:32:42;;;;;;;15.80;11.70;;;;;;;8.43;88.46;98290.62;131020;1257;107499;-78
2023/10/20 01:35:49;;;;;;;16.10;11.50;;;;;;;8.43;88.46;98293.59;130944;1251;107666;-78
2023/10/20 01:38:54;;;;;;;17.50;12.10;;;;;;;8.47;88.45;98281.55;130874;1257;108495;-78
2023/10/20 01:42:00;;;;;;;15.10;11.50;;;;;;;8.46;88.50;98273.36;130970;1258;106949;-78
2023/10/20 01:45:07;;;;;;;14.70;10.50;;;;;;;8.45;88.52;98279.48;130933;1259;107712;-77
2023/10/20 01:48:13;;;;;;;12.80;9.20;;;;;;;8.46;88.64;98279.20;130977;1257;107744;-78
2023/10/20 01:51:18;;;;;;;14.40;10.80;;;;;;;8.47;88.51;98269.92;130900;1257;108686;-78
2023/10/20 01:54:24;;;;;;;15.60;11.50;;;;;;;8.48;88.70;98266.74;130856;1260;108492;-78
2023/10/20 01:57:30;;;;;;;15.70;11.50;;;;;;;8.50;88.65;98258.38;130918;1265;107643;-78
2023/10/20 02:00:37;;;;;;;15.80;11.40;;;;;;;8.50;88.72;98259.61;130884;1257;107756;-78
2023/10/20 02:03:46;;;;;;;16.40;10.80;;;;;;;8.49;88.87;98261.45;131012;1266;106392;-77
2023/10/20 02:06:52;;;;;;;13.70;9.10;;;;;;;8.49;88.81;98261.48;130885;1265;108652;-77
2023/10/20 02:09:58;;;;;;;14.60;10.80;;;;;;;8.49;88.88;98263.61;130885;1256;108144;-78
2023/10/20 02:13:04;;;;;;;16.40;12.10;;;;;;;8.50;88.98;98257.77;131111;1257;107236;-76
2023/10/20 02:16:10;;;;;;;15.50;11.40;;;;;;;8.52;88.95;98254.96;130978;1257;107863;-77
2023/10/20 02:19:16;;;;;;;16.80;11.70;;;;;;;8.53;88.94;98248.52;130902;1257;108632;-78
2023/10/20 02:22:22;;;;;;;16.30;11.00;;;;;;;8.52;89.01;98240.38;131135;1251;108526;-76
2023/10/20 02:25:27;;;;;;;15.20;10.50;;;;;;;8.50;89.03;98234.46;130962;1258;105640;-76
2023/10/20 02:28:33;;;;;;;18.90;12.40;;;;;;;8.49;89.16;98234.74;131139;1265;107688;-76
2023/10/20 02:31:40;;;;;;;17.10;11.70;;;;;;;8.48;89.17;98221.35;130976;1254;106718;-75
2023/10/20 02:34:45;;;;;;;17.80;12.30;;;;;;;8.48;89.12;98220.33;130991;1257;106893;-77
2023/10/20 02:37:51;;;;;;;16.60;12.50;;;;;;;8.48;89.30;98223.36;130718;1258;106323;-79
2023/10/20 02:40:57;;;;;;;17.50;11.30;;;;;;;8.47;89.27;98220.98;131029;1267;107812;-78
2023/10/20 02:44:03;;;;;;;14.00;10.10;;;;;;;8.47;89.38;98226.50;131067;1267;107806;-76
2023/10/20 02:47:09;;;;;;;16.70;11.40;;;;;;;8.48;89.43;98233.82;131189;1256;108732;-75
2023/10/20 02:50:15;;;;;;;16.90;11.70;;;;;;;8.50;89.31;98232.00;130980;1257;106538;-74
2023/10/20 02:53:21;;;;;;;18.10;12.20;;;;;;;8.50;89.49;98229.23;130888;1257;106444;-74
2023/10/20 02:56:26;;;;;;;20.00;13.20;;;;;;;8.51;89.50;98228.66;130934;1257;107146;-74
2023/10/20 02:59:32;;;;;;;19.00;12.10;;;;;;;8.49;89.73;98232.02;130933;1267;107036;-75
2023/10/20 03:02:39;;;;;;;15.40;10.40;;;;;;;8.49;89.67;98231.75;130935;1254;108702;-74
2023/10/20 03:05:45;;;;;;;19.80;12.20;;;;;;;8.51;89.64;98231.25;130966;1257;106763;-74
2023/10/20 03:08:51;;;;;;;18.10;12.60;;;;;;;8.54;89.69;98228.98;130865;1253;107864;-74
2023/10/20 03:11:57;;;;;;;18.80;12.60;;;;;;;8.56;89.81;98226.63;130939;1255;108573;-74
2023/10/20 03:15:03;;;;;;;17.70;12.60;;;;;;;8.56;89.80;98227.24;130751;1257;109156;-74
2023/10/20 03:18:13;;;;;;;17.70;11.10;;;;;;;8.56;89.82;98224.81;131005;1251;108734;-74
2023/10/20 03:21:19;;;;;;;15.80;10.40;;;;;;;8.55;89.94;98219.29;130911;1262;108614;-74
2023/10/20 03:24:24;;;;;;;19.90;11.80;;;;;;;8.54;89.88;98211.43;130958;1257;106659;-74
2023/10/20 03:27:32;;;;;;;18.90;12.70;;;;;;;8.53;90.06;98208.33;130848;1255;108668;-74
2023/10/20 03:30:40;;;;;;;19.80;13.30;;;;;;;8.53;90.06;98206.27;130887;1267;107701;-74
2023/10/20 03:33:46;;;;;;;20.30;13.30;;;;;;;8.54;90.04;98215.52;131004;1258;106658;-74
2023/10/20 03:36:53;;;;;;;18.80;11.70;;;;;;;8.51;90.06;98210.88;130776;1259;107592;-74
2023/10/20 03:39:58;;;;;;;17.40;11.40;;;;;;;8.50;90.23;98218.63;130991;1257;108708;-74
2023/10/20 03:43:04;;;;;;;18.80;10.90;;;;;;;8.50;90.42;98227.84;130928;1258;105844;-74
2023/10/20 03:46:13;;;;;;;21.10;13.70;;;;;;;8.53;90.44;98236.73;130942;1257;107265;-74
2023/10/20 03:49:19;;;;;;;19.80;13.10;;;;;;;8.56;90.58;98235.63;130982;1254;107701;-75
2023/10/20 03:52:28;;;;;;;21.50;14.00;;;;;;;8.60;90.45;98232.64;130966;1254;107881;-75
2023/10/20 03:55:34;;;;;;;20.40;12.70;;;;;;;8.63;90.53;98228.94;131021;1264;107710;-75
2023/10/20 03:58:42;;;;;;;20.70;13.60;;;;;;;8.63;90.32;98222.39;130954;1257;108577;-75
2023/10/20 04:01:47;;;;;;;20.80;12.10;;;;;;;8.61;90.49;98222.46;130947;1257;107794;-75
2023/10/20 04:04:53;;;;;;;18.90;11.10;;;;;;;8.60;90.62;98222.91;130970;1264;107120;-75
2023/10/20 04:07:58;;;;;;;22.20;13.70;;;;;;;8.60;90.61;98217.96;130903;1251;107139;-74
2023/10/20 04:11:04;;;;;;;21.00;13.00;;;;;;;8.61;90.80;98221.27;130932;1254;107563;-74
2023/10/20 04:14:10;;;;;;;20.00;13.20;;;;;;;8.64;90.76;98229.09;130948;1254;107995;-75
2023/10/20 04:17:15;;;;;;;21.40;14.00;;;;;;;8.67;90.59;98238.96;130928;1257;107872;-75
2023/10/20 04:20:23;;;;;;;20.60;12.60;;;;;;;8.66;90.67;98241.36;130937;1257;106712;-75
2023/10/20 04:23:29;;;;;;;21.00;11.80;;;;;;;8.64;90.72;98240.79;130974;1267;107708;-75
2023/10/20 04:26:35;;;;;;;20.70;13.20;;;;;;;8.66;90.98;98239.16;130939;1260;106827;-75
2023/10/20 04:41:49;;;;;;;21.80;14.20;;;;;;;8.69;90.74;98236.76;130947;1256;106031;-75
2023/10/20 04:43:38;;;;;;;18.70;11.40;;;;;;;8.61;91.15;98207.90;130870;1258;109005;-76
2023/10/20 04:53:52;;;;;;;23.70;15.00;;;;;;;8.59;91.29;98203.92;130918;1256;107926;-76
2023/10/20 05:00:38;;;;;;;22.50;13.90;;;;;;;8.55;91.51;98192.31;130545;1261;107433;-77
2023/10/20 05:03:48;;;;;;;23.90;13.20;;;;;;;8.54;91.89;98198.96;130832;1257;107516;-77
2023/10/20 05:07:05;;;;;;;26.00;14.50;;;;;;;8.53;91.75;98210.15;131013;1254;108819;-76
2023/10/20 05:10:11;;;;;;;27.60;16.30;;;;;;;8.55;91.74;98215.13;132168;1254;107690;-78
2023/10/20 05:13:17;;;;;;;22.40;14.80;;;;;;;8.58;91.74;98211.42;130966;1257;108675;-77
2023/10/20 05:16:25;;;;;;;22.90;14.80;;;;;;;8.58;91.69;98219.74;135061;1251;107748;-78
2023/10/20 05:19:35;;;;;;;20.70;12.90;;;;;;;8.57;91.82;98217.92;135056;1251;108818;-78
2023/10/20 05:22:41;;;;;;;19.50;11.50;;;;;;;8.59;91.84;98217.41;134604;1251;106619;-79
2023/10/20 05:25:50;;;;;;;21.60;14.10;;;;;;;8.62;91.91;98221.01;131046;1254;107713;-81
2023/10/20 05:28:56;;;;;;;22.10;14.10;;;;;;;8.68;91.77;98224.94;131234;1257;107773;-79
2023/10/20 05:32:01;;;;;;;24.90;15.70;;;;;;;8.72;91.95;98231.03;131057;1258;106993;-80
2023/10/20 05:35:09;;;;;;;24.10;14.50;;;;;;;8.74;91.99;98237.52;130971;1251;108472;-78
2023/10/20 05:38:14;;;;;;;21.70;13.40;;;;;;;8.69;91.79;98241.44;130879;1255;107458;-77
2023/10/20 05:41:20;;;;;;;19.10;11.70;;;;;;;8.68;92.10;98245.31;130920;1253;108659;-77
2023/10/20 05:44:25;;;;;;;20.60;13.50;;;;;;;8.70;92.06;98250.96;130674;1257;106560;-79
2023/10/20 05:47:31;;;;;;;23.00;14.00;;;;;;;8.74;92.25;98251.21;130893;1258;108600;-78
2023/10/20 05:50:38;;;;;;;20.70;14.00;;;;;;;8.75;91.97;98253.35;130923;1257;108576;-80
2023/10/20 05:53:44;;;;;;;19.90;13.00;;;;;;;8.74;92.05;98260.58;130926;1257;108670;-80
2023/10/20 05:56:50;;;;;;;21.40;12.70;;;;;;;8.73;92.16;98262.48;130858;1252;106403;-79
2023/10/20 05:59:58;;;;;;;18.60;11.40;;;;;;;8.71;92.23;98264.11;130836;1257;107752;-79
2023/10/20 06:03:07;;;;;;;20.20;13.20;;;;;;;8.73;92.39;98256.60;131089;1256;107774;-78
2023/10/20 06:06:12;;;;;;;19.30;13.10;;;;;;;8.78;92.47;98257.64;130885;1257;108749;-78
2023/10/20 06:09:19;;;;;;;20.90;14.20;;;;;;;8.79;92.47;98250.56;130897;1257;108540;-77
2023/10/20 06:12:25;;;;;;;19.90;12.50;;;;;;;8.77;92.40;98245.64;130858;1267;106499;-79
2023/10/20 06:15:31;;;;;;;16.10;10.50;;;;;;;8.73;92.53;98235.16;130714;1251;108528;-77
2023/10/20 06:18:37;;;;;;;18.80;12.60;;;;;;;8.72;92.63;98241.46;130967;1257;107655;-77
2023/10/20 06:21:43;;;;;;;19.00;12.30;;;;;;;8.76;92.50;98246.41;130950;1253;107980;-78
2023/10/20 06:24:48;;;;;;;19.80;12.30;;;;;;;8.80;92.48;98245.61;130868;1256;107740;-77
2023/10/20 06:27:54;;;;;;;17.60;12.50;;;;;;;8.81;92.44;98253.09;130694;1257;108560;-78
2023/10/20 06:31:15;;;;;;;17.10;11.30;;;;;;;8.81;92.55;98253.94;130810;1257;108698;-77
2023/10/20 06:34:23;;;;;;;17.40;10.40;;;;;;;8.81;92.46;98253.08;130921;1256;107211;-79
2023/10/20 06:37:35;;;;;;;18.10;11.70;;;;;;;8.83;92.63;98248.44;130866;1256;108365;-78
2023/10/20 06:40:42;;;;;;;21.50;12.80;;;;;;;8.87;92.40;98239.46;130935;1257;106581;-79
2023/10/20 06:43:50;;;;;;;18.50;12.20;;;;;;;8.91;92.47;98227.95;130885;1256;107724;-78
2023/10/20 06:46:56;;;;;;;20.20;12.90;;;;;;;8.92;92.53;98229.03;130898;1257;107637;-80
2023/10/20 06:50:02;;;;;;;19.10;12.10;;;;;;;8.92;92.73;98237.02;130872;1254;107064;-79
2023/10/20 06:53:08;;;;;;;14.80;10.40;;;;;;;8.91;92.56;98239.98;130646;1257;264819;-79
2023/10/20 06:56:13;;;;;;;18.90;11.80;;;;;;;8.92;92.69;98241.96;130915;1256;106858;-79
2023/10/20 06:59:20;;;;;;;17.90;11.20;;;;;;;8.95;92.68;98243.75;130907;1256;109388;-78
2023/10/20 07:02:25;;;;;;;15.70;10.80;;;;;;;8.97;92.56;98241.88;130921;1256;108696;-78
2023/10/20 07:05:31;;;;;;;17.00;11.30;;;;;;;8.99;92.40;98243.91;130891;1266;106940;-78
2023/10/20 07:08:37;;;;;;;18.80;11.00;;;;;;;9.00;92.53;98248.29;130878;1258;106599;-78
2023/10/20 07:11:44;;;;;;;14.80;9.30;;;;;;;8.99;92.43;98243.58;130875;1256;106728;-77
2023/10/20 07:14:49;;;;;;;15.90;11.00;;;;;;;8.98;92.53;98243.19;130959;1257;106421;-78
2023/10/20 07:17:55;;;;;;;16.50;10.40;;;;;;;8.99;92.59;98239.07;130864;1257;107736;-79
2023/10/20 07:21:01;;;;;;;17.40;10.70;;;;;;;9.02;92.65;98236.31;130908;1257;107799;-78
2023/10/20 07:24:07;;;;;;;17.60;10.70;;;;;;;9.02;92.88;98228.94;130852;1256;106805;-78
2023/10/20 07:27:13;;;;;;;15.10;9.60;;;;;;;9.03;92.76;98227.11;130874;1256;106453;-78
2023/10/20 07:30:19;;;;;;;20.00;12.40;;;;;;;9.05;92.72;98233.08;130857;1256;108199;-77
2023/10/20 07:33:24;;;;;;;18.30;11.30;;;;;;;9.10;92.61;98237.11;130954;1256;107855;-79
2023/10/20 07:36:31;;;;;;;16.80;11.10;;;;;;;9.13;92.65;98234.03;130839;1256;107583;-77
2023/10/20 07:39:37;;;;;;;18.60;10.30;;;;;;;9.17;92.58;98240.84;130854;1257;107279;-78
2023/10/20 07:42:45;;;;;;;14.90;9.60;;;;;;;9.15;92.67;98239.19;130848;1257;108354;-78
2023/10/20 07:45:51;;;;;;;14.90;9.30;;;;;;;9.14;92.63;98229.36;130848;1252;108458;-77
2023/10/20 07:48:57;;;;;;;17.60;10.40;;;;;;;9.15;92.71;98218.03;130935;1256;107654;-77
2023/10/20 07:52:03;;;;;;;19.00;11.30;;;;;;;9.18;92.64;98212.81;130937;1256;108769;-78
2023/10/20 07:55:09;;;;;;;17.80;11.70;;;;;;;9.22;92.69;98204.90;130885;1253;108748;-79
2023/10/20 07:58:15;;;;;;;23.30;14.70;;;;;;;9.22;92.74;98201.30;130865;1256;108539;-79
2023/10/20 08:01:20;;;;;;;18.30;11.30;;;;;;;9.20;92.75;98199.57;130843;1257;108631;-78
2023/10/20 08:04:27;;;;;;;17.10;9.90;;;;;;;9.21;92.86;98206.98;130712;1251;108410;-80
2023/10/20 08:07:33;;;;;;;17.10;10.50;;;;;;;9.22;92.70;98209.19;130706;1254;106668;-79
2023/10/20 08:10:38;;;;;;;19.30;11.70;;;;;;;9.24;93.06;98213.43;130839;1251;107781;-79
2023/10/20 08:13:50;;;;;;;18.70;11.40;;;;;;;9.30;92.79;98210.27;130800;1257;107760;-80
2023/10/20 08:16:56;;;;;;;18.60;11.50;;;;;;;9.35;93.08;98210.80;130796;1253;107693;-78
2023/10/20 08:20:06;;;;;;;17.10;11.50;;;;;;;9.36;92.85;98202.00;130884;1256;106549;-78
2023/10/20 08:23:12;;;;;;;18.80;10.80;;;;;;;9.38;92.80;98183.91;130825;1257;107981;-79
2023/10/20 08:26:19;;;;;;;16.80;10.30;;;;;;;9.37;92.95;98177.42;130911;1254;106514;-79
2023/10/20 08:29:24;;;;;;;18.00;11.30;;;;;;;9.39;93.09;98182.23;130892;1256;107773;-79
2023/10/20 08:32:30;;;;;;;17.20;11.30;;;;;;;9.45;92.85;98190.16;130936;1253;109276;-78
2023/10/20 08:35:37;;;;;;;23.10;11.80;;;;;;;9.48;92.69;98191.61;130931;1256;107796;-78
2023/10/20 08:38:45;;;;;;;18.50;12.50;;;;;;;9.51;92.67;98195.00;130845;1256;108635;-79
2023/10/20 08:41:51;;;;;;;17.70;10.60;;;;;;;9.50;92.78;98192.94;130906;1259;108662;-77
2023/10/20 08:44:56;;;;;;;19.10;10.00;;;;;;;9.49;92.74;98182.48;130810;1257;108026;-79
2023/10/20 08:48:04;;;;;;;18.10;11.40;;;;;;;9.49;92.89;98170.98;130824;1257;108596;-80
2023/10/20 08:51:11;;;;;;;17.60;11.30;;;;;;;9.52;92.86;98159.25;130899;1253;108564;-79
2023/10/20 08:54:19;;;;;;;17.80;11.80;;;;;;;9.59;92.97;98158.58;130889;1257;108053;-79
2023/10/20 08:57:27;;;;;;;17.90;11.70;;;;;;;9.68;93.08;98169.44;130946;1256;107969;-79
2023/10/20 09:00:33;;;;;;;19.30;11.80;;;;;;;9.68;92.93;98177.25;130815;1253;106965;-79
2023/10/20 09:03:43;;;;;;;17.30;10.60;;;;;;;9.66;92.73;98181.84;130886;1251;105470;-77
2023/10/20 09:06:49;;;;;;;16.80;10.80;;;;;;;9.66;92.76;98176.42;130884;1255;106733;-79
2023/10/20 09:09:55;;;;;;;17.40;11.60;;;;;;;9.68;92.76;98181.31;130849;1264;107133;-78
2023/10/20 09:13:01;;;;;;;18.30;11.30;;;;;;;9.69;92.89;98177.30;130937;1256;108449;-79
2023/10/20 09:16:08;;;;;;;17.20;12.00;;;;;;;9.68;92.89;98179.14;130886;1256;106443;-79
2023/10/20 09:19:14;;;;;;;18.10;12.00;;;;;;;9.66;92.67;98186.05;130959;1257;108663;-79
2023/10/20 09:22:30;;;;;;;17.60;10.80;;;;;;;9.64;92.98;98194.56;130865;1256;108545;-78
2023/10/20 09:25:36;;;;;;;17.10;11.50;;;;;;;9.64;93.11;98188.83;130846;1251;108553;-78
2023/10/20 09:28:47;;;;;;;19.50;12.90;;;;;;;9.67;93.02;98182.50;130827;1253;106267;-79
2023/10/20 09:31:53;;;;;;;16.00;10.80;;;;;;;9.70;93.15;98178.73;130837;1256;108664;-78
2023/10/20 09:34:58;;;;;;;15.70;11.40;;;;;;;9.76;92.85;98162.16;130921;1256;106570;-78
2023/10/20 09:38:10;;;;;;;14.70;11.00;;;;;;;9.83;92.74;98149.90;130872;1256;107625;-80
2023/10/20 09:41:21;;;;;;;17.80;11.50;;;;;;;9.86;92.53;98154.95;130857;1253;108402;-80
2023/10/20 09:44:39;;;;;;;14.50;9.80;;;;;;;9.86;92.35;98148.27;130833;1256;107389;-79
2023/10/20 09:47:51;;;;;;;16.20;10.60;;;;;;;9.88;92.14;98143.90;131044;1256;108633;-81
2023/10/20 09:50:57;;;;;;;14.10;10.00;;;;;;;9.91;92.58;98151.27;130979;1252;107228;-80
2023/10/20 09:54:04;;;;;;;11.90;9.60;;;;;;;9.97;92.15;98158.71;130946;1256;107701;-79
2023/10/20 09:57:12;;;;;;;12.30;9.20;;;;;;;9.98;91.94;98158.18;130942;1256;107600;-81
2023/10/20 10:00:31;;;;;;;13.70;9.20;;;;;;;9.93;92.30;98162.73;130837;1256;108740;-78
2023/10/20 10:03:40;;;;;;;11.60;7.80;;;;;;;9.85;92.19;98154.78;130917;1253;107753;-80
2023/10/20 10:06:49;;;;;;;12.90;8.90;;;;;;;9.79;92.42;98147.11;130837;1267;108498;-81
2023/10/20 10:09:55;;;;;;;12.10;9.00;;;;;;;9.77;92.38;98140.29;131021;1259;106437;-79
2023/10/20 10:13:04;;;;;;;12.80;9.30;;;;;;;9.76;92.28;98136.14;130841;1256;107537;-79
2023/10/20 10:16:20;;;;;;;14.50;9.90;;;;;;;9.71;92.57;98131.09;130857;1254;108531;-79
2023/10/20 10:19:28;;;;;;;14.40;9.30;;;;;;;9.67;92.34;98114.95;130928;1256;108563;-78
2023/10/20 10:22:34;;;;;;;11.60;8.40;;;;;;;9.63;92.43;98108.20;130899;1253;106521;-79
2023/10/20 10:25:41;;;;;;;12.10;9.40;;;;;;;9.62;92.32;98098.58;130900;1251;106753;-79
2023/10/20 10:28:51;;;;;;;12.80;8.80;;;;;;;9.62;92.53;98095.67;130865;1251;108463;-79
2023/10/20 10:31:57;;;;;;;13.30;9.50;;;;;;;9.61;92.49;98094.02;130887;1257;108193;-79
2023/10/20 10:35:03;;;;;;;13.10;9.50;;;;;;;9.60;92.46;98091.93;130914;1257;108588;-78
2023/10/20 10:38:20;;;;;;;16.60;10.30;;;;;;;9.59;92.64;98085.46;130883;1256;107988;-80
2023/10/20 10:41:27;;;;;;;14.30;9.70;;;;;;;9.56;92.68;98081.07;130886;1259;105964;-80
2023/10/20 10:44:37;;;;;;;13.90;9.70;;;;;;;9.57;92.70;98084.77;130904;1251;108605;-78
2023/10/20 10:47:43;;;;;;;15.70;10.40;;;;;;;9.58;92.51;98082.67;130923;1256;106518;-79
2023/10/20 10:50:50;;;;;;;15.70;10.60;;;;;;;9.55;92.67;98083.52;131005;1251;108354;-80
2023/10/20 10:53:56;;;;;;;13.70;10.00;;;;;;;9.52;92.35;98090.52;130833;1256;108626;-80
2023/10/20 10:57:03;;;;;;;15.50;10.50;;;;;;;9.45;92.48;98088.39;130884;1252;107690;-78
2023/10/20 11:00:15;;;;;;;13.80;9.30;;;;;;;9.42;92.77;98096.88;130890;1252;106711;-79
2023/10/20 11:03:20;;;;;;;;;;;;;;;9.42;92.59;98097.23;130926;1258;108083;-79
2023/10/20 11:06:26;;;;;;;14.80;10.00;;;;;;;9.43;92.55;98102.48;130824;1257;107768;-80
2023/10/20 11:09:34;;;;;;;13.90;10.40;;;;;;;9.42;92.78;98112.47;130858;1258;108388;-80
2023/10/20 11:12:48;;;;;;;16.10;11.40;;;;;;;9.42;92.78;98120.87;130906;1255;106257;-78
2023/10/20 11:15:54;;;;;;;15.00;10.10;;;;;;;9.43;92.54;98111.73;130918;1257;107912;-79
2023/10/20 11:19:01;;;;;;;12.00;8.60;;;;;;;9.37;92.56;98101.97;130907;1256;109382;-80
2023/10/20 11:22:16;;;;;;;14.70;10.00;;;;;;;9.33;92.67;98104.61;130908;1256;108720;-79
2023/10/20 11:25:22;;;;;;;14.00;10.40;;;;;;;9.35;92.91;98096.97;130939;1259;108663;-80
2023/10/20 11:28:30;;;;;;;15.20;10.00;;;;;;;9.40;92.95;98106.89;130863;1256;105714;-80
2023/10/20 11:31:37;;;;;;;13.80;9.80;;;;;;;9.38;92.49;98113.55;130936;1251;106738;-79
2023/10/20 11:34:43;;;;;;;16.80;10.00;;;;;;;9.32;93.04;98107.59;131038;1251;107041;-78
2023/10/20 11:37:49;;;;;;;14.90;10.30;;;;;;;9.32;92.69;98104.35;130889;1253;107583;-79
2023/10/20 11:40:55;;;;;;;18.70;12.10;;;;;;;9.37;93.18;98099.10;130980;1256;105661;-79
2023/10/20 11:44:01;;;;;;;14.10;10.10;;;;;;;9.40;93.08;98097.34;130906;1258;107745;-80
2023/10/20 11:47:07;;;;;;;16.00;11.50;;;;;;;9.36;92.71;98103.06;130906;1253;106489;-79
2023/10/20 11:50:15;;;;;;;13.60;9.80;;;;;;;9.34;92.65;98096.92;130941;1257;107565;-79
2023/10/20 11:53:21;;;;;;;13.60;9.00;;;;;;;9.33;92.78;98101.12;130867;1256;107735;-81
2023/10/20 11:56:26;;;;;;;12.90;8.70;;;;;;;9.31;92.93;98104.02;130867;1253;108495;-79
2023/10/20 11:59:33;;;;;;;15.30;10.20;;;;;;;9.27;92.94;98109.58;130945;1255;108495;-80
2023/10/20 12:02:39;;;;;;;16.90;10.10;;;;;;;9.28;92.77;98119.90;130801;1256;107913;-79
2023/10/20 12:05:46;;;;;;;15.80;9.40;;;;;;;9.25;92.70;98123.36;130919;1255;108377;-78
2023/10/20 12:08:52;;;;;;;14.70;9.70;;;;;;;9.19;92.68;98134.84;131254;1256;109054;-75
2023/10/20 12:11:59;;;;;;;13.10;9.00;;;;;;;9.15;93.00;98136.98;130995;1253;108701;-76
2023/10/20 12:15:07;;;;;;;14.80;8.90;;;;;;;9.10;92.82;98134.04;131013;1256;106413;-76
2023/10/20 12:18:13;;;;;;;14.90;9.70;;;;;;;9.04;92.97;98130.86;130995;1257;107780;-76
2023/10/20 12:21:18;;;;;;;14.60;9.60;;;;;;;9.00;92.91;98133.61;130889;1253;107365;-76
2023/10/20 12:24:24;;;;;;;14.10;9.60;;;;;;;9.00;92.84;98133.41;130999;1252;107700;-78
2023/10/20 12:27:29;;;;;;;14.90;10.10;;;;;;;9.01;92.85;98137.27;131314;1255;108435;-75
2023/10/20 12:30:35;;;;;;;14.80;9.70;;;;;;;8.99;93.07;98138.61;131068;1256;106611;-75
2023/10/20 12:33:44;;;;;;;13.70;8.90;;;;;;;8.95;92.96;98137.71;130931;1257;107059;-77
2023/10/20 12:36:50;;;;;;;19.90;11.20;;;;;;;8.94;93.05;98128.18;130970;1256;108594;-76
2023/10/20 12:39:59;;;;;;;16.20;10.90;;;;;;;8.93;93.14;98123.55;131010;1253;107150;-75
2023/10/20 12:43:09;;;;;;;15.90;11.40;;;;;;;8.94;92.93;98129.69;131105;1251;106977;-74
2023/10/20 12:46:15;;;;;;;19.20;13.10;;;;;;;8.96;93.18;98117.02;131067;1251;108620;-75
2023/10/20 12:49:21;;;;;;;17.50;11.40;;;;;;;8.94;93.15;98118.71;130847;1252;109107;-78
2023/10/20 12:52:27;;;;;;;15.90;10.00;;;;;;;8.89;93.36;98132.77;131039;1253;106754;-78
2023/10/20 12:55:33;;;;;;;15.00;11.00;;;;;;;8.86;93.43;98134.02;130940;1256;106717;-76
2023/10/20 12:58:39;;;;;;;18.10;11.30;;;;;;;8.87;93.29;98120.30;130996;1253;107315;-79
2023/10/20 13:01:44;;;;;;;19.60;12.80;;;;;;;8.84;93.31;98122.42;130977;1253;108676;-79
2023/10/20 13:04:51;;;;;;;16.40;10.80;;;;;;;8.85;93.31;98114.00;131071;1253;108401;-77
2023/10/20 13:07:56;;;;;;;18.70;11.20;;;;;;;8.83;93.47;98109.28;131127;1254;107681;-78
2023/10/20 13:11:02;;;;;;;16.00;10.00;;;;;;;8.82;93.25;98104.90;131194;1251;106840;-76
2023/10/20 13:14:08;;;;;;;15.30;10.30;;;;;;;8.81;93.33;98099.73;132129;1251;108503;-78
2023/10/20 13:17:14;;;;;;;16.80;10.10;;;;;;;8.81;93.31;98093.52;131366;1254;107777;-78
2023/10/20 13:20:20;;;;;;;16.80;10.50;;;;;;;8.81;93.46;98086.26;131224;1253;107754;-78
2023/10/20 13:23:26;;;;;;;14.10;9.60;;;;;;;8.82;93.38;98073.60;130987;1256;108600;-78
2023/10/20 13:26:31;;;;;;;14.70;9.70;;;;;;;8.78;93.37;98066.42;130863;1256;107787;-77
2023/10/20 13:29:37;;;;;;;12.90;7.50;;;;;;;8.78;93.30;98059.42;130858;1256;106450;-76
2023/10/20 13:32:43;;;;;;;13.80;9.70;;;;;;;8.79;93.47;98057.66;130874;1256;107757;-75
2023/10/20 13:35:49;;;;;;;14.00;9.80;;;;;;;8.82;93.21;98047.14;130841;1256;107707;-78
2023/10/20 13:38:54;;;;;;;14.60;9.50;;;;;;;8.82;93.26;98048.85;130799;1256;106677;-75
2023/10/20 13:42:02;;;;;;;14.20;9.20;;;;;;;8.81;93.11;98051.75;130880;1251;106753;-76
2023/10/20 13:45:09;;;;;;;14.40;8.80;;;;;;;8.74;92.96;98048.15;130853;1251;106553;-76
2023/10/20 13:48:14;;;;;;;12.60;8.00;;;;;;;8.70;93.21;98039.89;130838;1256;106759;-76
2023/10/20 13:51:20;;;;;;;12.60;9.00;;;;;;;8.67;93.35;98049.23;130858;1267;107842;-76
2023/10/20 13:54:27;;;;;;;13.80;9.20;;;;;;;8.65;93.22;98054.65;130733;1253;108402;-77
2023/10/20 13:57:33;;;;;;;14.40;8.60;;;;;;;8.65;93.22;98057.47;130787;1259;107797;-76
2023/10/20 14:00:39;;;;;;;13.10;8.70;;;;;;;8.66;93.19;98057.35;130828;1259;106413;-77
2023/10/20 14:03:45;;;;;;;12.80;8.10;;;;;;;8.62;93.10;98056.02;130908;1253;108630;-77
2023/10/20 14:06:52;;;;;;;13.00;8.80;;;;;;;8.57;93.17;98049.44;130815;1255;106932;-76
2023/10/20 14:09:57;;;;;;;13.60;9.60;;;;;;;8.53;93.23;98047.31;130865;1256;107645;-76
2023/10/20 14:13:05;;;;;;;16.50;11.00;;;;;;;8.50;93.17;98047.11;130862;1256;108950;-77
2023/10/20 14:16:10;;;;;;;14.50;10.10;;;;;;;8.53;93.38;98050.35;130814;1256;108535;-75
2023/10/20 14:19:16;;;;;;;15.30;10.50;;;;;;;8.53;93.21;98057.80;130850;1254;108277;-77
2023/10/20 14:22:22;;;;;;;15.40;10.10;;;;;;;8.50;93.15;98070.33;130770;1252;106622;-76
2023/10/20 14:25:27;;;;;;;13.20;8.90;;;;;;;8.48;93.06;98072.59;130820;1251;108296;-77
2023/10/20 14:28:33;;;;;;;13.70;9.60;;;;;;;8.45;93.14;98080.59;130769;1256;108387;-76
2023/10/20 14:31:38;;;;;;;15.70;10.80;;;;;;;8.43;92.99;98090.71;130903;1256;107675;-78
2023/10/20 14:34:44;;;;;;;17.40;12.40;;;;;;;8.37;92.99;98089.61;130894;1253;107718;-77